createdAt,value
2023-01-06T00:00:27.394Z,1015.38
2023-01-06T00:01:27.458Z,1015.39
2023-01-06T00:02:27.361Z,1015.37
2023-01-06T00:03:27.326Z,1015.38
2023-01-06T00:04:27.365Z,1015.40
2023-01-06T00:05:27.288Z,1015.38
2023-01-06T00:06:27.305Z,1015.31
2023-01-06T00:07:27.265Z,1015.30
2023-01-06T00:08:27.248Z,1015.40
2023-01-06T00:09:27.240Z,1015.31
2023-01-06T00:10:27.272Z,1015.29
2023-01-06T00:11:27.226Z,1015.32
2023-01-06T00:12:27.204Z,1015.35
2023-01-06T00:13:27.194Z,1015.35
2023-01-06T00:14:27.329Z,1015.35
2023-01-06T00:15:27.241Z,1015.33
2023-01-06T00:16:27.194Z,1015.33
2023-01-06T00:17:27.152Z,1015.36
2023-01-06T00:18:27.139Z,1015.39
2023-01-06T00:19:27.136Z,1015.36
2023-01-06T00:20:27.121Z,1015.33
2023-01-06T00:21:27.121Z,1015.34
2023-01-06T00:22:27.118Z,1015.34
2023-01-06T00:23:27.096Z,1015.30
2023-01-06T00:24:27.072Z,1015.28
2023-01-06T00:25:27.102Z,1015.28
2023-01-06T00:26:27.050Z,1015.29
2023-01-06T00:27:27.048Z,1015.26
2023-01-06T00:28:27.058Z,1015.25
2023-01-06T00:29:27.033Z,1015.21
2023-01-06T00:30:27.191Z,1015.16
2023-01-06T00:31:27.126Z,1015.18
2023-01-06T00:32:26.986Z,1015.16
2023-01-06T00:33:26.985Z,1015.12
2023-01-06T00:34:26.968Z,1015.08
2023-01-06T00:35:26.958Z,1015.10
2023-01-06T00:36:26.981Z,1015.10
2023-01-06T00:37:26.943Z,1015.08
2023-01-06T00:38:26.926Z,1015.10
2023-01-06T00:39:26.911Z,1015.17
2023-01-06T00:40:26.892Z,1015.14
2023-01-06T00:41:26.939Z,1015.19
2023-01-06T00:42:26.886Z,1015.22
2023-01-06T00:43:26.877Z,1015.29
2023-01-06T00:44:26.852Z,1015.26
2023-01-06T00:45:26.866Z,1015.23
2023-01-06T00:46:27.053Z,1015.25
2023-01-06T00:47:26.864Z,1015.19
2023-01-06T00:48:26.813Z,1015.19
2023-01-06T00:49:26.795Z,1015.23
2023-01-06T00:50:26.788Z,1015.25
2023-01-06T00:51:26.779Z,1015.24
2023-01-06T00:52:26.791Z,1015.24
2023-01-06T00:53:26.760Z,1015.27
2023-01-06T00:54:26.744Z,1015.29
2023-01-06T00:55:26.742Z,1015.24
2023-01-06T00:56:26.712Z,1015.23
2023-01-06T00:57:26.747Z,1015.22
2023-01-06T00:58:26.707Z,1015.24
2023-01-06T00:59:26.688Z,1015.27
2023-01-06T01:00:26.688Z,1015.26
2023-01-06T01:01:26.884Z,1015.29
2023-01-06T01:02:27.016Z,1015.25
2023-01-06T01:03:26.654Z,1015.25
2023-01-06T01:04:26.639Z,1015.34
2023-01-06T01:05:26.628Z,1015.31
2023-01-06T01:06:26.619Z,1015.32
2023-01-06T01:07:26.666Z,1015.30
2023-01-06T01:08:26.601Z,1015.28
2023-01-06T01:09:26.612Z,1015.27
2023-01-06T01:10:26.579Z,1015.27
2023-01-06T01:11:26.558Z,1015.25
2023-01-06T01:12:26.544Z,1015.26
2023-01-06T01:13:26.557Z,1015.21
2023-01-06T01:14:26.522Z,1015.21
2023-01-06T01:15:26.517Z,1015.19
2023-01-06T01:16:26.504Z,1015.22
2023-01-06T01:17:26.513Z,1015.24
2023-01-06T01:18:26.598Z,1015.23
2023-01-06T01:19:26.525Z,1015.22
2023-01-06T01:20:26.463Z,1015.23
2023-01-06T01:21:26.463Z,1015.21
2023-01-06T01:22:26.469Z,1015.20
2023-01-06T01:23:26.429Z,1015.20
2023-01-06T01:24:26.411Z,1015.14
2023-01-06T01:25:26.410Z,1015.14
2023-01-06T01:26:26.397Z,1015.15
2023-01-06T01:27:26.382Z,1015.13
2023-01-06T01:28:26.393Z,1015.12
2023-01-06T01:29:26.355Z,1015.13
2023-01-06T01:30:26.354Z,1015.08
2023-01-06T01:31:26.424Z,1015.06
2023-01-06T01:32:26.323Z,1015.02
2023-01-06T01:33:26.333Z,1015.02
2023-01-06T01:34:26.412Z,1015.04
2023-01-06T01:35:26.297Z,1015.02
2023-01-06T01:36:26.285Z,1014.99
2023-01-06T01:37:26.284Z,1014.98
2023-01-06T01:38:26.292Z,1014.98
2023-01-06T01:39:26.278Z,1014.95
2023-01-06T01:40:26.235Z,1014.98
2023-01-06T01:41:26.250Z,1014.95
2023-01-06T01:42:26.212Z,1015.05
2023-01-06T01:43:26.234Z,1015.08
2023-01-06T01:44:26.202Z,1015.01
2023-01-06T01:45:26.214Z,1015.01
2023-01-06T01:46:26.275Z,1015.01
2023-01-06T01:47:26.156Z,1015.04
2023-01-06T01:48:26.143Z,1014.96
2023-01-06T01:49:26.189Z,1015.02
2023-01-06T01:50:26.241Z,1015.03
2023-01-06T01:51:26.133Z,1015.02
2023-01-06T01:52:26.110Z,1015.09
2023-01-06T01:53:26.088Z,1015.04
2023-01-06T01:54:26.134Z,1015.05
2023-01-06T01:55:26.071Z,1015.05
2023-01-06T01:56:26.059Z,1015.02
2023-01-06T01:57:26.058Z,1015.04
2023-01-06T01:58:26.049Z,1015.03
2023-01-06T01:59:26.039Z,1015.01
2023-01-06T02:00:26.047Z,1014.96
2023-01-06T02:01:26.113Z,1014.94
2023-01-06T02:02:26.203Z,1014.92
2023-01-06T02:03:25.986Z,1014.90
2023-01-06T02:04:25.983Z,1014.93
2023-01-06T02:05:25.969Z,1014.92
2023-01-06T02:06:26.082Z,1014.85
2023-01-06T02:07:25.942Z,1014.88
2023-01-06T02:08:25.958Z,1014.86
2023-01-06T02:09:25.930Z,1014.88
2023-01-06T02:10:25.905Z,1014.95
2023-01-06T02:11:25.905Z,1014.89
2023-01-06T02:12:25.891Z,1014.89
2023-01-06T02:13:25.896Z,1014.87
2023-01-06T02:14:25.913Z,1014.86
2023-01-06T02:15:25.896Z,1014.90
2023-01-06T02:16:25.873Z,1014.90
2023-01-06T02:17:25.842Z,1014.84
2023-01-06T02:18:25.818Z,1014.86
2023-01-06T02:19:25.824Z,1014.86
2023-01-06T02:20:25.827Z,1014.88
2023-01-06T02:21:25.818Z,1014.85
2023-01-06T02:22:25.883Z,1014.83
2023-01-06T02:23:25.782Z,1014.78
2023-01-06T02:24:25.786Z,1014.78
2023-01-06T02:25:25.765Z,1014.82
2023-01-06T02:26:25.746Z,1014.79
2023-01-06T02:27:28.846Z,1014.73
2023-01-06T02:28:25.762Z,1014.73
2023-01-06T02:29:25.699Z,1014.78
2023-01-06T02:30:25.698Z,1014.70
2023-01-06T02:31:25.732Z,1014.70
2023-01-06T02:32:25.661Z,1014.64
2023-01-06T02:33:25.657Z,1014.61
2023-01-06T02:34:25.674Z,1014.62
2023-01-06T02:35:25.635Z,1014.65
2023-01-06T02:36:25.623Z,1014.62
2023-01-06T02:37:25.622Z,1014.65
2023-01-06T02:38:25.763Z,1014.60
2023-01-06T02:39:25.622Z,1014.61
2023-01-06T02:40:25.591Z,1014.57
2023-01-06T02:41:25.578Z,1014.55
2023-01-06T02:42:25.568Z,1014.52
2023-01-06T02:43:25.558Z,1014.49
2023-01-06T02:44:25.565Z,1014.54
2023-01-06T02:45:25.555Z,1014.54
2023-01-06T02:46:25.571Z,1014.57
2023-01-06T02:47:25.511Z,1014.60
2023-01-06T02:48:25.529Z,1014.54
2023-01-06T02:49:25.513Z,1014.57
2023-01-06T02:50:25.485Z,1014.56
2023-01-06T02:51:25.499Z,1014.56
2023-01-06T02:52:25.460Z,1014.61
2023-01-06T02:53:25.440Z,1014.52
2023-01-06T02:54:25.593Z,1014.53
2023-01-06T02:55:25.433Z,1014.52
2023-01-06T02:56:25.411Z,1014.53
2023-01-06T02:57:25.397Z,1014.51
2023-01-06T02:58:25.400Z,1014.49
2023-01-06T02:59:25.372Z,1014.50
2023-01-06T03:00:25.393Z,1014.51
2023-01-06T03:01:25.481Z,1014.48
2023-01-06T03:02:25.367Z,1014.48
2023-01-06T03:03:25.336Z,1014.40
2023-01-06T03:04:25.373Z,1014.45
2023-01-06T03:05:25.305Z,1014.45
2023-01-06T03:06:25.330Z,1014.43
2023-01-06T03:07:25.315Z,1014.39
2023-01-06T03:08:25.285Z,1014.39
2023-01-06T03:09:25.276Z,1014.34
2023-01-06T03:10:25.395Z,1014.33
2023-01-06T03:11:25.270Z,1014.36
2023-01-06T03:12:25.230Z,1014.38
2023-01-06T03:13:25.226Z,1014.34
2023-01-06T03:14:25.214Z,1014.34
2023-01-06T03:15:25.220Z,1014.39
2023-01-06T03:16:25.274Z,1014.38
2023-01-06T03:17:25.182Z,1014.36
2023-01-06T03:18:25.176Z,1014.28
2023-01-06T03:19:25.166Z,1014.24
2023-01-06T03:20:25.156Z,1014.23
2023-01-06T03:21:25.132Z,1014.20
2023-01-06T03:22:25.148Z,1014.16
2023-01-06T03:23:25.110Z,1014.20
2023-01-06T03:24:25.098Z,1014.17
2023-01-06T03:25:25.090Z,1014.18
2023-01-06T03:26:25.190Z,1014.21
2023-01-06T03:27:25.106Z,1014.17
2023-01-06T03:28:25.056Z,1014.15
2023-01-06T03:29:25.048Z,1014.16
2023-01-06T03:30:25.040Z,1014.12
2023-01-06T03:31:25.111Z,1014.11
2023-01-06T03:32:25.049Z,1014.10
2023-01-06T03:33:25.010Z,1014.09
2023-01-06T03:34:25.000Z,1014.10
2023-01-06T03:35:24.989Z,1014.06
2023-01-06T03:36:24.970Z,1014.04
2023-01-06T03:37:24.973Z,1014.01
2023-01-06T03:38:24.981Z,1013.99
2023-01-06T03:39:24.946Z,1013.97
2023-01-06T03:40:24.935Z,1013.97
2023-01-06T03:41:24.924Z,1013.96
2023-01-06T03:42:35.942Z,1013.96
2023-01-06T03:43:25.931Z,1013.92
2023-01-06T03:44:24.889Z,1013.96
2023-01-06T03:45:24.878Z,1013.95
2023-01-06T03:46:24.953Z,1013.96
2023-01-06T03:47:24.889Z,1014.00
2023-01-06T03:48:24.874Z,1013.96
2023-01-06T03:49:24.840Z,1013.96
2023-01-06T03:50:24.829Z,1013.92
2023-01-06T03:51:24.807Z,1013.94
2023-01-06T03:52:24.812Z,1013.88
2023-01-06T03:53:24.790Z,1013.91
2023-01-06T03:54:24.801Z,1013.85
2023-01-06T03:55:24.764Z,1013.86
2023-01-06T03:56:24.755Z,1013.89
2023-01-06T03:57:24.774Z,1013.87
2023-01-06T03:58:24.872Z,1013.83
2023-01-06T03:59:24.732Z,1013.86
2023-01-06T04:00:24.746Z,1013.80
2023-01-06T04:01:24.777Z,1013.80
2023-01-06T04:02:24.698Z,1013.75
2023-01-06T04:03:24.706Z,1013.81
2023-01-06T04:04:24.697Z,1013.87
2023-01-06T04:05:24.663Z,1013.83
2023-01-06T04:06:24.657Z,1013.84
2023-01-06T04:07:24.643Z,1013.80
2023-01-06T04:08:24.625Z,1013.85
2023-01-06T04:09:24.664Z,1013.86
2023-01-06T04:10:24.618Z,1013.87
2023-01-06T04:11:24.603Z,1013.79
2023-01-06T04:12:24.596Z,1013.80
2023-01-06T04:13:24.569Z,1013.81
2023-01-06T04:14:24.730Z,1013.84
2023-01-06T04:15:24.571Z,1013.83
2023-01-06T04:16:24.660Z,1013.81
2023-01-06T04:17:24.528Z,1013.81
2023-01-06T04:18:24.527Z,1013.80
2023-01-06T04:19:24.508Z,1013.74
2023-01-06T04:20:24.536Z,1013.72
2023-01-06T04:21:24.526Z,1013.67
2023-01-06T04:22:24.512Z,1013.68
2023-01-06T04:23:24.485Z,1013.62
2023-01-06T04:24:24.481Z,1013.66
2023-01-06T04:25:24.453Z,1013.69
2023-01-06T04:26:24.439Z,1013.74
2023-01-06T04:27:24.435Z,1013.64
2023-01-06T04:28:24.427Z,1013.65
2023-01-06T04:29:24.423Z,1013.63
2023-01-06T04:30:24.534Z,1013.59
2023-01-06T04:31:24.423Z,1013.52
2023-01-06T04:32:24.406Z,1013.59
2023-01-06T04:33:24.357Z,1013.56
2023-01-06T04:34:24.343Z,1013.51
2023-01-06T04:35:24.335Z,1013.68
2023-01-06T04:36:24.354Z,1013.57
2023-01-06T04:37:24.333Z,1013.46
2023-01-06T04:38:24.305Z,1013.49
2023-01-06T04:39:24.294Z,1013.46
2023-01-06T04:40:24.287Z,1013.46
2023-01-06T04:41:24.303Z,1013.45
2023-01-06T04:42:24.282Z,1013.43
2023-01-06T04:43:24.253Z,1013.40
2023-01-06T04:44:24.240Z,1013.43
2023-01-06T04:45:24.266Z,1013.42
2023-01-06T04:46:24.370Z,1013.40
2023-01-06T04:47:24.256Z,1013.41
2023-01-06T04:48:24.197Z,1013.43
2023-01-06T04:49:24.188Z,1013.39
2023-01-06T04:50:24.185Z,1013.34
2023-01-06T04:51:24.170Z,1013.36
2023-01-06T04:52:24.154Z,1013.27
2023-01-06T04:53:24.172Z,1013.26
2023-01-06T04:54:24.133Z,1013.20
2023-01-06T04:55:24.130Z,1013.23
2023-01-06T04:56:26.602Z,1013.19
2023-01-06T04:57:24.108Z,1013.15
2023-01-06T04:58:24.131Z,1013.16
2023-01-06T04:59:24.100Z,1013.11
2023-01-06T05:00:24.082Z,1013.11
2023-01-06T05:01:24.233Z,1013.09
2023-01-06T05:02:24.176Z,1013.07
2023-01-06T05:03:24.075Z,1013.01
2023-01-06T05:04:24.023Z,1013.00
2023-01-06T05:05:24.009Z,1012.99
2023-01-06T05:06:24.000Z,1012.97
2023-01-06T05:07:23.999Z,1013.00
2023-01-06T05:08:24.021Z,1012.97
2023-01-06T05:09:23.973Z,1012.99
2023-01-06T05:10:23.994Z,1012.93
2023-01-06T05:11:23.950Z,1012.87
2023-01-06T05:12:23.949Z,1012.90
2023-01-06T05:13:23.927Z,1012.88
2023-01-06T05:14:23.951Z,1012.87
2023-01-06T05:15:23.909Z,1012.90
2023-01-06T05:16:23.954Z,1012.88
2023-01-06T05:17:23.890Z,1012.89
2023-01-06T05:18:24.037Z,1012.87
2023-01-06T05:19:23.928Z,1012.92
2023-01-06T05:20:23.865Z,1012.88
2023-01-06T05:21:23.851Z,1012.90
2023-01-06T05:22:23.832Z,1012.89
2023-01-06T05:23:23.820Z,1012.91
2023-01-06T05:24:23.909Z,1012.89
2023-01-06T05:25:23.810Z,1012.86
2023-01-06T05:26:23.810Z,1012.91
2023-01-06T05:27:23.800Z,1012.93
2023-01-06T05:28:23.767Z,1012.88
2023-01-06T05:29:23.995Z,1012.92
2023-01-06T05:30:23.754Z,1012.94
2023-01-06T05:31:23.795Z,1012.87
2023-01-06T05:32:23.727Z,1012.88
2023-01-06T05:33:23.726Z,1012.84
2023-01-06T05:34:23.842Z,1012.77
2023-01-06T05:35:23.715Z,1012.87
2023-01-06T05:36:23.685Z,1012.82
2023-01-06T05:37:23.671Z,1012.78
2023-01-06T05:38:23.658Z,1012.77
2023-01-06T05:39:23.653Z,1012.70
2023-01-06T05:40:23.677Z,1012.73
2023-01-06T05:41:23.627Z,1012.70
2023-01-06T05:42:23.619Z,1012.68
2023-01-06T05:43:23.614Z,1012.60
2023-01-06T05:44:23.604Z,1012.65
2023-01-06T05:45:23.617Z,1012.61
2023-01-06T05:46:23.600Z,1012.62
2023-01-06T05:47:23.572Z,1012.63
2023-01-06T05:48:23.560Z,1012.60
2023-01-06T05:49:23.565Z,1012.59
2023-01-06T05:50:23.648Z,1012.68
2023-01-06T05:51:23.570Z,1012.70
2023-01-06T05:52:23.521Z,1012.68
2023-01-06T05:53:23.505Z,1012.60
2023-01-06T05:54:23.502Z,1012.58
2023-01-06T05:55:23.484Z,1012.62
2023-01-06T05:56:23.501Z,1012.60
2023-01-06T05:57:23.464Z,1012.55
2023-01-06T05:58:23.465Z,1012.53
2023-01-06T05:59:23.448Z,1012.53
2023-01-06T06:00:23.463Z,1012.53
2023-01-06T06:01:23.482Z,1012.57
2023-01-06T06:02:23.459Z,1012.55
2023-01-06T06:03:23.417Z,1012.52
2023-01-06T06:04:23.385Z,1012.56
2023-01-06T06:05:23.379Z,1012.59
2023-01-06T06:06:23.506Z,1012.51
2023-01-06T06:07:23.386Z,1012.54
2023-01-06T06:08:23.343Z,1012.54
2023-01-06T06:09:23.359Z,1012.49
2023-01-06T06:10:23.322Z,1012.51
2023-01-06T06:11:23.308Z,1012.52
2023-01-06T06:12:23.340Z,1012.50
2023-01-06T06:13:24.487Z,1012.51
2023-01-06T06:14:23.310Z,1012.59
2023-01-06T06:15:23.263Z,1012.52
2023-01-06T06:16:23.377Z,1012.48
2023-01-06T06:17:23.243Z,1012.52
2023-01-06T06:18:23.232Z,1012.46
2023-01-06T06:19:23.236Z,1012.50
2023-01-06T06:20:23.240Z,1012.47
2023-01-06T06:21:23.243Z,1012.40
2023-01-06T06:22:23.324Z,1012.44
2023-01-06T06:23:23.211Z,1012.39
2023-01-06T06:24:23.177Z,1012.33
2023-01-06T06:25:23.152Z,1012.39
2023-01-06T06:26:23.141Z,1012.36
2023-01-06T06:27:23.141Z,1012.34
2023-01-06T06:28:23.139Z,1012.33
2023-01-06T06:29:23.152Z,1012.30
2023-01-06T06:30:23.108Z,1012.29
2023-01-06T06:31:23.223Z,1012.24
2023-01-06T06:32:23.081Z,1012.26
2023-01-06T06:33:23.074Z,1012.27
2023-01-06T06:34:23.094Z,1012.24
2023-01-06T06:35:23.087Z,1012.23
2023-01-06T06:36:23.051Z,1012.21
2023-01-06T06:37:23.033Z,1012.18
2023-01-06T06:38:23.138Z,1012.27
2023-01-06T06:39:23.009Z,1012.28
2023-01-06T06:40:23.021Z,1012.20
2023-01-06T06:41:22.980Z,1012.24
2023-01-06T06:42:22.970Z,1012.20
2023-01-06T06:43:23.019Z,1012.19
2023-01-06T06:44:22.959Z,1012.19
2023-01-06T06:45:22.977Z,1012.16
2023-01-06T06:46:22.973Z,1012.16
2023-01-06T06:47:22.925Z,1012.15
2023-01-06T06:48:22.920Z,1012.14
2023-01-06T06:49:22.913Z,1012.09
2023-01-06T06:50:22.894Z,1012.10
2023-01-06T06:51:22.950Z,1012.07
2023-01-06T06:52:22.877Z,1012.08
2023-01-06T06:53:22.855Z,1012.07
2023-01-06T06:54:23.187Z,1012.11
2023-01-06T06:55:22.869Z,1012.09
2023-01-06T06:56:22.875Z,1012.05
2023-01-06T06:57:22.808Z,1012.07
2023-01-06T06:58:22.811Z,1012.07
2023-01-06T06:59:22.798Z,1012.10
2023-01-06T07:00:22.782Z,1012.09
2023-01-06T07:01:22.896Z,1012.10
2023-01-06T07:02:22.839Z,1012.06
2023-01-06T07:03:22.765Z,1012.08
2023-01-06T07:04:22.832Z,1012.08
2023-01-06T07:05:22.735Z,1012.03
2023-01-06T07:06:22.750Z,1012.01
2023-01-06T07:07:22.709Z,1011.97
2023-01-06T07:08:22.721Z,1011.96
2023-01-06T07:09:22.705Z,1011.91
2023-01-06T07:10:22.791Z,1011.91
2023-01-06T07:11:22.671Z,1011.84
2023-01-06T07:12:22.700Z,1011.92
2023-01-06T07:13:22.662Z,1011.90
2023-01-06T07:14:22.634Z,1011.95
2023-01-06T07:15:23.132Z,1012.00
2023-01-06T07:16:22.618Z,1011.93
2023-01-06T07:17:22.636Z,1011.94
2023-01-06T07:18:22.616Z,1011.89
2023-01-06T07:19:22.647Z,1011.89
2023-01-06T07:20:22.582Z,1011.87
2023-01-06T07:21:22.550Z,1011.93
2023-01-06T07:22:22.576Z,1011.90
2023-01-06T07:23:22.539Z,1011.87
2023-01-06T07:24:22.533Z,1011.90
2023-01-06T07:25:22.533Z,1011.90
2023-01-06T07:26:22.714Z,1011.87
2023-01-06T07:27:22.523Z,1011.87
2023-01-06T07:28:22.493Z,1011.85
2023-01-06T07:29:22.475Z,1011.87
2023-01-06T07:30:22.465Z,1011.92
2023-01-06T07:31:22.499Z,1011.87
2023-01-06T07:32:22.474Z,1011.89
2023-01-06T07:33:22.428Z,1011.85
2023-01-06T07:34:22.424Z,1011.87
2023-01-06T07:35:22.416Z,1011.91
2023-01-06T07:36:22.395Z,1011.93
2023-01-06T07:37:22.382Z,1011.91
2023-01-06T07:38:22.412Z,1011.93
2023-01-06T07:39:22.359Z,1011.88
2023-01-06T07:40:22.363Z,1011.88
2023-01-06T07:41:22.334Z,1011.91
2023-01-06T07:42:22.449Z,1011.84
2023-01-06T07:43:22.328Z,1011.86
2023-01-06T07:44:22.331Z,1011.89
2023-01-06T07:45:22.322Z,1011.91
2023-01-06T07:46:22.337Z,1011.94
2023-01-06T07:47:22.281Z,1011.99
2023-01-06T07:48:22.319Z,1011.98
2023-01-06T07:49:22.254Z,1011.96
2023-01-06T07:50:22.245Z,1012.05
2023-01-06T07:51:22.223Z,1012.01
2023-01-06T07:52:22.221Z,1011.98
2023-01-06T07:53:22.211Z,1011.97
2023-01-06T07:54:22.218Z,1012.00
2023-01-06T07:55:22.181Z,1011.99
2023-01-06T07:56:22.178Z,1011.99
2023-01-06T07:57:22.163Z,1011.98
2023-01-06T07:58:22.271Z,1011.99
2023-01-06T07:59:22.162Z,1011.99
2023-01-06T08:00:22.133Z,1011.95
2023-01-06T08:01:22.193Z,1011.95
2023-01-06T08:02:22.198Z,1011.92
2023-01-06T08:03:22.238Z,1011.88
2023-01-06T08:04:22.124Z,1011.92
2023-01-06T08:05:22.083Z,1011.88
2023-01-06T08:06:22.118Z,1011.84
2023-01-06T08:07:22.050Z,1011.86
2023-01-06T08:08:22.042Z,1011.88
2023-01-06T08:09:22.050Z,1011.77
2023-01-06T08:10:22.051Z,1011.71
2023-01-06T08:11:22.007Z,1011.68
2023-01-06T08:12:22.004Z,1011.69
2023-01-06T08:13:21.985Z,1011.72
2023-01-06T08:14:22.085Z,1011.76
2023-01-06T08:15:21.993Z,1011.75
2023-01-06T08:16:21.952Z,1011.68
2023-01-06T08:17:21.937Z,1011.72
2023-01-06T08:18:21.935Z,1011.74
2023-01-06T08:19:21.917Z,1011.71
2023-01-06T08:20:21.934Z,1011.67
2023-01-06T08:21:21.905Z,1011.69
2023-01-06T08:22:21.884Z,1011.67
2023-01-06T08:23:21.913Z,1011.65
2023-01-06T08:24:21.871Z,1011.65
2023-01-06T08:25:21.863Z,1011.65
2023-01-06T08:26:21.875Z,1011.66
2023-01-06T08:27:21.855Z,1011.68
2023-01-06T08:28:21.826Z,1011.66
2023-01-06T08:29:21.815Z,1011.70
2023-01-06T08:30:22.108Z,1011.68
2023-01-06T08:31:21.902Z,1011.61
2023-01-06T08:32:21.833Z,1011.58
2023-01-06T08:33:21.813Z,1011.53
2023-01-06T08:34:21.780Z,1011.47
2023-01-06T08:35:21.777Z,1011.42
2023-01-06T08:36:21.750Z,1011.43
2023-01-06T08:37:21.777Z,1011.40
2023-01-06T08:38:21.747Z,1011.42
2023-01-06T08:39:21.695Z,1011.44
2023-01-06T08:40:21.690Z,1011.39
2023-01-06T08:41:21.683Z,1011.51
2023-01-06T08:42:21.705Z,1011.51
2023-01-06T08:43:21.658Z,1011.51
2023-01-06T08:44:21.641Z,1011.53
2023-01-06T08:45:21.642Z,1011.60
2023-01-06T08:46:21.833Z,1011.62
2023-01-06T08:47:21.638Z,1011.58
2023-01-06T08:48:21.597Z,1011.47
2023-01-06T08:49:21.584Z,1011.38
2023-01-06T08:50:21.580Z,1011.36
2023-01-06T08:51:21.572Z,1011.30
2023-01-06T08:52:21.588Z,1011.29
2023-01-06T08:53:21.549Z,1011.32
2023-01-06T08:54:21.540Z,1011.31
2023-01-06T08:55:21.537Z,1011.27
2023-01-06T08:56:21.509Z,1011.30
2023-01-06T08:57:21.535Z,1011.30
2023-01-06T08:58:21.501Z,1011.25
2023-01-06T08:59:21.476Z,1011.22
2023-01-06T09:00:21.469Z,1011.24
2023-01-06T09:01:21.595Z,1011.23
2023-01-06T09:02:21.633Z,1011.17
2023-01-06T09:03:21.459Z,1011.17
2023-01-06T09:04:21.459Z,1011.18
2023-01-06T09:05:21.470Z,1011.18
2023-01-06T09:06:21.422Z,1011.22
2023-01-06T09:07:21.396Z,1011.17
2023-01-06T09:08:21.409Z,1011.20
2023-01-06T09:09:21.375Z,1011.19
2023-01-06T09:10:21.355Z,1011.19
2023-01-06T09:11:21.342Z,1011.29
2023-01-06T09:12:21.337Z,1011.24
2023-01-06T09:13:21.352Z,1011.23
2023-01-06T09:14:21.348Z,1011.22
2023-01-06T09:15:21.317Z,1011.22
2023-01-06T09:16:21.438Z,1011.29
2023-01-06T09:17:21.280Z,1011.31
2023-01-06T09:18:21.297Z,1011.32
2023-01-06T09:19:21.261Z,1011.41
2023-01-06T09:20:21.275Z,1011.41
2023-01-06T09:21:21.243Z,1011.38
2023-01-06T09:22:21.219Z,1011.36
2023-01-06T09:23:21.219Z,1011.38
2023-01-06T09:24:21.248Z,1011.35
2023-01-06T09:25:21.197Z,1011.30
2023-01-06T09:26:21.182Z,1011.24
2023-01-06T09:27:22.848Z,1011.19
2023-01-06T09:28:21.163Z,1011.14
2023-01-06T09:29:21.144Z,1011.11
2023-01-06T09:30:21.182Z,1011.06
2023-01-06T09:31:21.188Z,1011.03
2023-01-06T09:32:21.131Z,1011.00
2023-01-06T09:33:21.109Z,1011.02
2023-01-06T09:34:21.223Z,1011.05
2023-01-06T09:35:21.088Z,1011.13
2023-01-06T09:36:21.110Z,1011.11
2023-01-06T09:37:21.064Z,1011.12
2023-01-06T09:38:21.051Z,1011.17
2023-01-06T09:39:21.042Z,1011.15
2023-01-06T09:40:21.024Z,1011.11
2023-01-06T09:41:21.013Z,1011.06
2023-01-06T09:42:21.075Z,1011.09
2023-01-06T09:43:21.000Z,1011.05
2023-01-06T09:44:22.054Z,1010.99
2023-01-06T09:45:20.982Z,1010.97
2023-01-06T09:46:20.992Z,1010.98
2023-01-06T09:47:20.958Z,1010.96
2023-01-06T09:48:20.970Z,1010.90
2023-01-06T09:49:20.929Z,1010.88
2023-01-06T09:50:21.763Z,1010.82
2023-01-06T09:51:20.931Z,1010.85
2023-01-06T09:52:20.931Z,1010.85
2023-01-06T09:53:20.893Z,1010.84
2023-01-06T09:54:20.892Z,1010.82
2023-01-06T09:55:20.888Z,1010.85
2023-01-06T09:56:20.890Z,1010.77
2023-01-06T09:57:20.839Z,1010.72
2023-01-06T09:58:20.828Z,1010.70
2023-01-06T09:59:20.823Z,1010.66
2023-01-06T10:00:20.803Z,1010.64
2023-01-06T10:01:20.943Z,1010.69
2023-01-06T10:02:20.877Z,1010.74
2023-01-06T10:03:20.778Z,1010.67
2023-01-06T10:04:20.767Z,1010.64
2023-01-06T10:05:20.756Z,1010.66
2023-01-06T10:06:20.985Z,1010.63
2023-01-06T10:07:20.743Z,1010.64
2023-01-06T10:08:20.779Z,1010.56
2023-01-06T10:09:20.743Z,1010.51
2023-01-06T10:10:22.254Z,1010.50
2023-01-06T10:11:20.697Z,1010.53
2023-01-06T10:12:20.704Z,1010.50
2023-01-06T10:13:20.685Z,1010.47
2023-01-06T10:14:20.658Z,1010.47
2023-01-06T10:15:20.644Z,1010.41
2023-01-06T10:16:20.660Z,1010.36
2023-01-06T10:17:20.624Z,1010.40
2023-01-06T10:18:20.648Z,1010.42
2023-01-06T10:19:20.607Z,1010.47
2023-01-06T10:20:20.676Z,1010.42
2023-01-06T10:21:20.597Z,1010.43
2023-01-06T10:22:20.694Z,1010.42
2023-01-06T10:23:20.603Z,1010.43
2023-01-06T10:24:20.544Z,1010.40
2023-01-06T10:25:20.548Z,1010.29
2023-01-06T10:26:20.530Z,1010.21
2023-01-06T10:27:20.528Z,1010.26
2023-01-06T10:28:20.556Z,1010.28
2023-01-06T10:29:20.506Z,1010.27
2023-01-06T10:30:20.612Z,1010.31
2023-01-06T10:31:20.538Z,1010.29
2023-01-06T10:32:20.470Z,1010.25
2023-01-06T10:33:20.467Z,1010.32
2023-01-06T10:34:20.433Z,1010.27
2023-01-06T10:35:20.432Z,1010.22
2023-01-06T10:36:20.415Z,1010.22
2023-01-06T10:37:20.412Z,1010.11
2023-01-06T10:38:20.541Z,1010.12
2023-01-06T10:39:20.397Z,1010.10
2023-01-06T10:40:20.376Z,1010.04
2023-01-06T10:41:20.367Z,1010.01
2023-01-06T10:42:20.381Z,1010.00
2023-01-06T10:43:20.371Z,1009.99
2023-01-06T10:44:20.396Z,1009.96
2023-01-06T10:45:21.719Z,1009.94
2023-01-06T10:46:20.381Z,1010.04
2023-01-06T10:47:20.297Z,1010.01
2023-01-06T10:48:20.326Z,1010.03
2023-01-06T10:49:20.317Z,1010.02
2023-01-06T10:50:20.331Z,1009.96
2023-01-06T10:51:20.258Z,1009.97
2023-01-06T10:52:20.241Z,1009.98
2023-01-06T10:53:20.231Z,1009.92
2023-01-06T10:54:20.339Z,1009.95
2023-01-06T10:55:20.249Z,1009.88
2023-01-06T10:56:20.205Z,1009.87
2023-01-06T10:57:20.181Z,1009.93
2023-01-06T10:58:20.185Z,1009.92
2023-01-06T10:59:20.209Z,1009.95
2023-01-06T11:00:20.186Z,1009.90
2023-01-06T11:01:20.246Z,1009.87
2023-01-06T11:02:20.325Z,1009.89
2023-01-06T11:03:32.763Z,1009.88
2023-01-06T11:04:21.114Z,1009.85
2023-01-06T11:05:20.140Z,1009.84
2023-01-06T11:06:20.096Z,1009.83
2023-01-06T11:07:20.122Z,1009.89
2023-01-06T11:08:20.071Z,1009.85
2023-01-06T11:09:20.083Z,1009.84
2023-01-06T11:10:20.157Z,1009.83
2023-01-06T11:11:28.199Z,1009.81
2023-01-06T11:12:21.041Z,1009.85
2023-01-06T11:13:20.023Z,1009.83
2023-01-06T11:14:20.005Z,1009.75
2023-01-06T11:15:19.992Z,1009.70
2023-01-06T11:16:20.056Z,1009.70
2023-01-06T11:17:19.978Z,1009.75
2023-01-06T11:18:19.959Z,1009.74
2023-01-06T11:19:19.951Z,1009.75
2023-01-06T11:20:19.936Z,1009.71
2023-01-06T11:21:19.951Z,1009.65
2023-01-06T11:22:19.921Z,1009.64
2023-01-06T11:23:19.908Z,1009.68
2023-01-06T11:24:19.988Z,1009.61
2023-01-06T11:25:19.923Z,1009.60
2023-01-06T11:26:20.042Z,1009.55
2023-01-06T11:27:19.888Z,1009.57
2023-01-06T11:28:19.973Z,1009.53
2023-01-06T11:29:19.865Z,1009.56
2023-01-06T11:30:19.825Z,1009.54
2023-01-06T11:31:19.904Z,1009.52
2023-01-06T11:32:19.834Z,1009.58
2023-01-06T11:33:19.793Z,1009.51
2023-01-06T11:34:19.789Z,1009.53
2023-01-06T11:35:19.780Z,1009.60
2023-01-06T11:36:19.792Z,1009.60
2023-01-06T11:37:19.800Z,1009.57
2023-01-06T11:38:19.772Z,1009.47
2023-01-06T11:39:19.723Z,1009.49
2023-01-06T11:40:19.718Z,1009.47
2023-01-06T11:41:19.720Z,1009.49
2023-01-06T11:42:19.856Z,1009.47
2023-01-06T11:43:19.701Z,1009.45
2023-01-06T11:44:19.708Z,1009.40
2023-01-06T11:45:19.664Z,1009.42
2023-01-06T11:46:19.702Z,1009.41
2023-01-06T11:47:19.639Z,1009.44
2023-01-06T11:48:19.638Z,1009.50
2023-01-06T11:49:20.414Z,1009.48
2023-01-06T11:50:19.622Z,1009.42
2023-01-06T11:51:19.609Z,1009.48
2023-01-06T11:52:19.599Z,1009.39
2023-01-06T11:53:19.605Z,1009.42
2023-01-06T11:54:19.569Z,1009.48
2023-01-06T11:55:19.594Z,1009.45
2023-01-06T11:56:19.551Z,1009.45
2023-01-06T11:57:19.543Z,1009.44
2023-01-06T11:58:19.653Z,1009.53
2023-01-06T11:59:19.511Z,1009.54
2023-01-06T12:00:19.509Z,1009.53
2023-01-06T12:01:19.606Z,1009.42
2023-01-06T12:02:19.537Z,1009.42
2023-01-06T12:03:19.536Z,1009.46
2023-01-06T12:04:19.461Z,1009.40
2023-01-06T12:05:19.443Z,1009.31